createdAt,value
2018-09-20T00:03:23.110Z,50.28
2018-09-20T00:08:26.408Z,50.02
2018-09-20T00:13:29.743Z,50.28
2018-09-20T00:18:33.034Z,50.36
2018-09-20T00:23:36.362Z,50.96
2018-09-20T00:28:39.651Z,51.37
2018-09-20T00:33:42.956Z,51.22
2018-09-20T00:38:46.256Z,51.49
2018-09-20T00:43:49.563Z,51.58
2018-09-20T00:48:54.770Z,52.24
2018-09-20T00:53:58.066Z,51.71
2018-09-20T00:59:01.410Z,52.39
2018-09-20T01:04:04.747Z,52.16
2018-09-20T01:09:09.850Z,52.41
2018-09-20T01:14:13.147Z,52.30
2018-09-20T01:19:16.447Z,52.12
2018-09-20T01:24:19.764Z,52.30
2018-09-20T01:29:23.054Z,52.51
2018-09-20T01:34:26.383Z,52.92
2018-09-20T01:39:29.695Z,53.01
2018-09-20T01:44:33.067Z,52.71
2018-09-20T01:49:36.411Z,52.59
2018-09-20T01:54:39.729Z,52.73
2018-09-20T01:59:43.031Z,53.30
2018-09-20T02:04:46.347Z,53.51
2018-09-20T02:09:49.675Z,53.13
2018-09-20T02:14:53.041Z,53.65
2018-09-20T02:19:56.443Z,53.78
2018-09-20T02:24:59.775Z,53.21
2018-09-20T02:30:03.118Z,53.73
2018-09-20T02:35:06.843Z,53.43
2018-09-20T02:40:10.167Z,54.40
2018-09-20T02:45:13.479Z,54.00
2018-09-20T02:50:16.782Z,54.10
2018-09-20T02:55:20.155Z,54.22
2018-09-20T03:00:23.460Z,54.78
2018-09-20T03:05:26.807Z,54.95
2018-09-20T03:10:30.132Z,54.59
2018-09-20T03:15:33.447Z,54.80
2018-09-20T03:20:36.743Z,54.92
2018-09-20T03:25:40.031Z,55.51
2018-09-20T03:30:43.456Z,55.52
2018-09-20T03:35:46.723Z,55.39
2018-09-20T03:40:50.017Z,56.17
2018-09-20T03:45:53.364Z,55.97
2018-09-20T03:50:56.700Z,56.24
2018-09-20T03:56:00.023Z,56.40
2018-09-20T04:01:03.334Z,56.68
2018-09-20T04:06:06.637Z,57.66
2018-09-20T04:11:09.961Z,57.93
2018-09-20T04:16:13.311Z,57.75
2018-09-20T04:21:22.647Z,57.39
2018-09-20T04:26:25.990Z,57.29
2018-09-20T04:31:29.981Z,58.17
2018-09-20T04:36:33.270Z,58.59
2018-09-20T04:41:36.621Z,58.38
2018-09-20T04:46:39.967Z,58.79
2018-09-20T04:51:43.297Z,59.22
2018-09-20T04:56:53.187Z,59.17
2018-09-20T05:01:56.479Z,59.49
2018-09-20T05:06:59.786Z,60.01
2018-09-20T05:12:03.104Z,59.67
2018-09-20T05:17:39.947Z,59.55
2018-09-20T05:22:43.303Z,58.83
2018-09-20T05:27:46.591Z,58.76
2018-09-20T05:32:49.889Z,59.03
2018-09-20T05:37:53.204Z,58.73
2018-09-20T05:42:56.679Z,59.58
2018-09-20T05:47:59.983Z,59.38
2018-09-20T05:53:03.308Z,58.86
2018-09-20T05:58:06.622Z,59.04
2018-09-20T06:03:09.933Z,58.72
2018-09-20T06:08:13.252Z,58.70
2018-09-20T06:13:16.612Z,58.16
2018-09-20T06:18:19.921Z,58.31
2018-09-20T06:23:23.218Z,57.55
2018-09-20T06:28:26.509Z,57.13
2018-09-20T06:33:29.806Z,57.13
2018-09-20T06:38:33.114Z,56.43
2018-09-20T06:43:36.425Z,56.62
2018-09-20T06:48:39.723Z,56.50
2018-09-20T06:53:43.038Z,55.93
2018-09-20T06:58:46.407Z,54.47
2018-09-20T07:03:49.739Z,54.74
2018-09-20T07:08:53.027Z,55.00
2018-09-20T07:13:56.349Z,54.66
2018-09-20T07:18:59.650Z,54.71
2018-09-20T07:24:03.188Z,53.62
2018-09-20T07:29:06.501Z,53.03
2018-09-20T07:34:09.795Z,53.35
2018-09-20T07:39:13.073Z,52.84
2018-09-20T07:44:16.390Z,52.45
2018-09-20T07:49:19.703Z,52.39
2018-09-20T07:54:23.002Z,52.86
2018-09-20T07:59:26.306Z,52.85
2018-09-20T08:04:29.605Z,51.46
2018-09-20T08:09:32.891Z,51.55
2018-09-20T08:14:36.187Z,51.29
2018-09-20T08:19:39.483Z,51.45
2018-09-20T08:24:42.863Z,51.08
2018-09-20T08:29:46.186Z,49.95
2018-09-20T08:34:49.508Z,49.10
2018-09-20T08:39:52.828Z,49.58
2018-09-20T08:44:56.132Z,49.79
2018-09-20T08:49:59.443Z,49.01
2018-09-20T08:55:02.768Z,48.05
2018-09-20T09:00:06.862Z,48.53
2018-09-20T09:05:10.155Z,47.33
2018-09-20T09:10:13.468Z,47.43
2018-09-20T09:15:16.790Z,46.90
2018-09-20T09:20:20.100Z,46.97
2018-09-20T09:25:23.408Z,46.48
2018-09-20T09:30:26.722Z,46.32
2018-09-20T09:35:30.045Z,44.80
2018-09-20T09:40:33.336Z,44.99
2018-09-20T09:45:36.622Z,44.64
2018-09-20T09:50:39.931Z,45.36
2018-09-20T09:55:43.262Z,45.15
2018-09-20T10:00:46.584Z,44.40
2018-09-20T10:05:49.910Z,43.93
2018-09-20T10:10:53.232Z,42.39
2018-09-20T10:15:56.561Z,41.76
2018-09-20T10:20:59.876Z,42.03
2018-09-20T10:26:03.164Z,41.69
2018-09-20T10:31:06.459Z,41.60
2018-09-20T10:36:09.746Z,40.24
2018-09-20T10:41:13.055Z,39.87
2018-09-20T10:46:16.406Z,39.76
2018-09-20T10:51:19.822Z,39.63
2018-09-20T10:56:23.136Z,39.82
2018-09-20T11:01:26.458Z,39.89
2018-09-20T11:06:29.803Z,38.85
2018-09-20T11:11:33.139Z,38.31
2018-09-20T11:16:37.223Z,36.94
2018-09-20T11:21:40.578Z,29.65
2018-09-20T11:26:43.912Z,26.01
2018-09-20T11:31:47.254Z,22.98
2018-09-20T11:36:50.547Z,22.83
2018-09-20T11:41:53.894Z,23.93
2018-09-20T11:46:57.231Z,23.71
2018-09-20T11:52:00.536Z,26.58
2018-09-20T11:57:03.834Z,25.28
2018-09-20T12:02:07.172Z,22.63
2018-09-20T12:07:10.494Z,24.51
2018-09-20T12:12:13.792Z,23.09
2018-09-20T12:17:17.107Z,29.60
2018-09-20T12:22:20.523Z,33.08
2018-09-20T12:27:23.827Z,29.00
2018-09-20T12:32:27.182Z,23.92
2018-09-20T12:37:35.535Z,21.52
2018-09-20T12:42:38.850Z,20.87
2018-09-20T12:47:42.171Z,22.40
2018-09-20T12:52:45.465Z,21.18
2018-09-20T12:57:48.767Z,20.16
2018-09-20T13:02:52.055Z,20.98
2018-09-20T13:07:55.352Z,25.76
2018-09-20T13:12:58.843Z,23.51
2018-09-20T13:18:02.177Z,22.99
2018-09-20T13:23:05.507Z,21.28
2018-09-20T13:28:09.223Z,25.53
2018-09-20T13:33:12.594Z,24.43
2018-09-20T13:38:15.921Z,23.75
2018-09-20T13:43:19.272Z,23.56
2018-09-20T13:48:22.715Z,24.95
2018-09-20T13:53:26.026Z,25.94
2018-09-20T13:58:29.319Z,27.44
2018-09-20T14:03:32.781Z,29.54
2018-09-20T14:08:36.292Z,29.00
2018-09-20T14:13:39.622Z,28.19
2018-09-20T14:18:42.939Z,28.64
2018-09-20T14:23:46.373Z,29.48
2018-09-20T14:28:49.635Z,29.62
2018-09-20T14:33:52.983Z,29.31
2018-09-20T14:38:56.328Z,29.96
2018-09-20T14:43:59.737Z,29.69
2018-09-20T14:49:03.183Z,29.88
2018-09-20T14:54:06.612Z,31.03
2018-09-20T14:59:10.028Z,30.88
2018-09-20T15:04:13.350Z,30.95
2018-09-20T15:09:16.750Z,31.11
2018-09-20T15:14:20.104Z,31.19
2018-09-20T15:19:23.423Z,31.32
2018-09-20T15:24:26.835Z,30.82
2018-09-20T15:29:30.300Z,31.65
2018-09-20T15:34:33.644Z,30.23
2018-09-20T15:39:36.971Z,30.49
2018-09-20T15:44:40.334Z,30.86
2018-09-20T15:49:43.661Z,30.93
2018-09-20T15:54:47.024Z,31.44
2018-09-20T15:59:50.392Z,31.14
2018-09-20T16:04:53.721Z,31.24
2018-09-20T16:09:57.091Z,31.99
2018-09-20T16:15:00.448Z,32.22
2018-09-20T16:20:04.009Z,32.17
2018-09-20T16:25:07.703Z,31.75
2018-09-20T16:30:28.624Z,32.12
2018-09-20T16:35:44.262Z,32.67
2018-09-20T16:40:49.038Z,32.69
2018-09-20T16:45:52.363Z,33.38
2018-09-20T16:50:55.672Z,33.65
2018-09-20T16:55:58.994Z,34.57
2018-09-20T17:01:02.439Z,34.78
2018-09-20T17:06:05.886Z,34.92
2018-09-20T17:11:09.266Z,34.44
2018-09-20T17:16:12.667Z,34.59
2018-09-20T17:21:16.039Z,34.91
2018-09-20T17:26:19.379Z,35.28
2018-09-20T17:31:22.779Z,35.48
2018-09-20T17:36:26.411Z,36.17
2018-09-20T17:41:31.995Z,35.52
2018-09-20T17:46:35.479Z,36.56
2018-09-20T17:51:39.101Z,37.13
2018-09-20T17:56:42.835Z,38.17
2018-09-20T18:01:46.127Z,38.95
2018-09-20T18:06:49.527Z,39.28
2018-09-20T18:11:52.848Z,39.40
2018-09-20T18:16:56.227Z,39.58
2018-09-20T18:21:59.548Z,39.99
2018-09-20T18:27:02.867Z,40.68
2018-09-20T18:32:05.799Z,40.94
2018-09-20T18:37:09.122Z,41.66
2018-09-20T18:42:12.451Z,41.28
2018-09-20T18:47:16.105Z,41.24
2018-09-20T18:52:19.427Z,41.21
2018-09-20T18:57:22.756Z,40.85
2018-09-20T19:02:26.057Z,41.25
2018-09-20T19:07:29.458Z,42.07
2018-09-20T19:12:32.767Z,41.57
2018-09-20T19:17:36.118Z,41.98
2018-09-20T19:22:39.439Z,41.24
2018-09-20T19:27:42.990Z,42.70
2018-09-20T19:32:46.339Z,42.79
2018-09-20T19:37:49.664Z,43.23
2018-09-20T19:42:52.988Z,42.14
2018-09-20T19:47:56.300Z,41.87
2018-09-20T19:52:59.619Z,42.66
2018-09-20T19:58:02.909Z,42.70
2018-09-20T20:03:06.263Z,42.40
2018-09-20T20:08:09.626Z,42.22
2018-09-20T20:13:13.025Z,42.34
2018-09-20T20:23:51.091Z,43.41
2018-09-20T20:28:54.542Z,43.69
2018-09-20T20:33:57.883Z,44.68
2018-09-20T20:39:01.326Z,45.28
2018-09-20T20:44:04.731Z,45.35
2018-09-20T20:49:08.047Z,45.45
2018-09-20T20:54:11.486Z,44.82
2018-09-20T20:59:14.826Z,45.19
2018-09-20T21:04:18.158Z,45.53
2018-09-20T21:09:21.631Z,45.70
2018-09-20T21:14:24.995Z,46.19
2018-09-20T21:19:28.362Z,46.05
2018-09-20T21:24:31.799Z,46.28
2018-09-20T21:29:35.205Z,47.02
2018-09-20T21:34:38.704Z,47.20
2018-09-20T21:39:42.071Z,47.36
2018-09-20T21:44:45.400Z,47.41
2018-09-20T21:49:48.723Z,47.00
2018-09-20T21:54:52.023Z,46.88
2018-09-20T21:59:55.363Z,47.47
2018-09-20T22:04:58.721Z,47.08
2018-09-20T22:10:02.097Z,47.81
2018-09-20T22:15:10.700Z,47.38
2018-09-20T22:20:14.215Z,47.81
2018-09-20T22:25:17.600Z,47.96
2018-09-20T22:30:21.278Z,48.17
2018-09-20T22:35:25.401Z,48.38
2018-09-20T22:40:28.744Z,48.18
2018-09-20T22:45:32.249Z,48.76
2018-09-20T22:50:35.590Z,48.61
2018-09-20T22:55:38.916Z,48.67
2018-09-20T23:00:42.254Z,49.12
2018-09-20T23:05:45.581Z,49.58
2018-09-20T23:10:48.903Z,49.27
2018-09-20T23:15:52.218Z,49.64
2018-09-20T23:20:55.593Z,50.37
2018-09-20T23:25:58.981Z,50.57
2018-09-20T23:31:02.295Z,50.93
2018-09-20T23:36:05.594Z,50.88
2018-09-20T23:41:08.985Z,50.76
2018-09-20T23:46:12.315Z,51.56
2018-09-20T23:51:15.735Z,51.73
2018-09-20T23:56:19.039Z,51.60
